KXWA Airport (Williston Basin Intl) Information

FAA: XWA - ICAO: KXWA

KXWA Airport Location

State North Dakota
County Williams
City Williston
KXWA Airport is 9 miles northwest of Williston, ND.
Latitude 48-15-39.1100N
Longitude 103-45-04.1000W
Elevation 2,353ft

KXWA Airport METARs

METAR KXWA 020051Z AUTO 29008KT 10SM CLR M10/M12 A2990 RMK AO2 SLP180 T11001122
Altimeter 29.90"
Temperature -10.0°C (14.0°F)
Wind 290° at 8KT
Clouds Skies are clear.
Visibility 10.0mi
Time observed: 2023-02-02T00:51:00Z

KXWA Airport Details

Status Operational
Activation August 2019
Ownership Public
Usage Public
Chart BILLINGS
ATC on-site No
Beacon schedule sunset-sunrise
Beacon color clear green

KXWA Airport Contacts

Owner CITY OF WILLISTON
Owner address PO BOX 1306, WILLISTON, ND 58802
Owner phone 701-875-8594
Manager BLAINE WELSTAD
Manager address 7933 19TH AVE NORTH, NEWBURG, ND 58762
Manager phone 701-272-6121

KXWA Airport (Williston Basin Intl) Radio Frequencies

KXWA (Airport) Radio Frequencies

UNICOM 122.8
Common traffic advisory frequency (CTAF) 122.8